Kaministiqua — CFN4612 — position and weather

sailwx.info

Track history (hours):
 
Tides and Currents Weather Stations Pressure Air Temp Water Temp Dewpoint Dewpoint Depression Visibility Wind Speed Wind Dir Waves Ship Positions

Kaministiqua

Last reported at 2016-May-28 12:23 UTC. Time now 2016-May-28 20:42 UTC.
Position N 45°07' W 074°28'.

Length 223 m; draft 7 m.

Type: Cargo ship. MMSI: 316009457.

Date/timePositionNaut miles runAvg speedWind from/ knotsBaromVisibWave heightAir tempDewpointWater temp
2016-May-28 12:23N 45°07' W 074°28'1010.0
2016-May-28 11:25N 45°13' W 074°17'12 8.9
2016-May-28 10:05N 45°14' W 074°00'4 8.3
2016-May-28 09:33N 45°17' W 073°56'2 1.8
2016-May-28 08:33N 45°19' W 073°55'1 1.2
2016-May-28 07:34N 45°20' W 073°55'9 9.0
2016-May-28 06:33N 45°24' W 073°43'6 6.0
2016-May-28 05:34N 45°24' W 073°35'2 1.6
2016-May-28 04:33N 45°24' W 073°33'4 3.7
2016-May-28 03:33N 45°28' W 073°30'2 2.0
2016-May-28 02:24N 45°30' W 073°31'3 3.4
2016-May-28 01:33N 45°33' W 073°32'8 7.6
2016-May-28 00:33N 45°40' W 073°28'9 8.5
2016-May-27 23:33N 45°47' W 073°21'9 8.7
2016-May-27 22:33N 45°54' W 073°13'8 8.1
2016-May-27 21:34N 46°02' W 073°10'3 2.5
2016-May-27 20:33N 46°03' W 073°07'0 0.0
2016-May-27 19:31N 46°03' W 073°07'0 0.0
2016-May-27 18:31N 46°03' W 073°07'0 0.0
2016-May-27 17:31N 46°03' W 073°07'0 0.0
2016-May-27 16:31N 46°03' W 073°07'0 0.0
2016-May-27 15:31N 46°03' W 073°07'0 0.0
2016-May-27 14:31N 46°03' W 073°07'0 0.0
2016-May-27 13:31N 46°03' W 073°07'0 0.0
2016-May-27 12:31N 46°03' W 073°07'0 0.0
2016-May-27 11:31N 46°03' W 073°07'0 0.0
2016-May-27 10:31N 46°03' W 073°07'0 0.0
2016-May-27 09:31N 46°03' W 073°07'0 0.0
2016-May-27 08:31N 46°03' W 073°07'0 0.0
2016-May-27 07:31N 46°03' W 073°07'0 0.0
2016-May-27 06:25N 46°03' W 073°07'0 0.0
2016-May-27 05:31N 46°03' W 073°07'0 0.0
2016-May-27 04:31N 46°03' W 073°07'0 0.0
2016-May-27 03:31N 46°03' W 073°07'0 0.0
2016-May-27 02:31N 46°03' W 073°07'0 0.0
2016-May-27 01:31N 46°03' W 073°07'0 0.0
2016-May-27 00:31N 46°03' W 073°07'0 0.0
2016-May-26 23:31N 46°03' W 073°07'0 0.0
2016-May-26 22:31N 46°03' W 073°07'0 0.0
2016-May-26 21:31N 46°03' W 073°07'0 0.0
2016-May-26 20:31N 46°03' W 073°07'0 0.0
2016-May-26 19:31N 46°03' W 073°07'0 0.0
2016-May-26 18:31N 46°03' W 073°07'0 0.0
2016-May-26 17:31N 46°03' W 073°07'0 0.0
2016-May-26 16:31N 46°03' W 073°07'0 0.0
2016-May-26 15:31N 46°03' W 073°07'0 0.0
2016-May-26 14:31N 46°03' W 073°07'0 0.0
2016-May-26 13:31N 46°03' W 073°07'0 0.0
2016-May-26 12:31N 46°03' W 073°07'0 0.0
2016-May-26 11:31N 46°03' W 073°07'0 0.0
2016-May-26 10:31N 46°03' W 073°07'0 0.0
2016-May-26 09:31N 46°03' W 073°07'0 0.0
2016-May-26 08:31N 46°03' W 073°07'0 0.0
2016-May-26 07:31N 46°03' W 073°07'0 0.0
2016-May-26 06:31N 46°03' W 073°07'0 0.0
2016-May-26 05:31N 46°03' W 073°07'0 0.0
2016-May-26 04:31N 46°03' W 073°07'0 0.0
2016-May-26 03:31N 46°03' W 073°07'0 0.0
2016-May-26 02:31N 46°03' W 073°07'0 0.0
2016-May-26 01:31N 46°03' W 073°07'0 0.0
2016-May-26 00:31N 46°03' W 073°07'0 0.0
2016-May-25 23:31N 46°03' W 073°07'0 0.0
2016-May-25 22:31N 46°03' W 073°07'0 0.0
2016-May-25 21:31N 46°03' W 073°07'0 0.0
2016-May-25 20:31N 46°03' W 073°07'0 0.0
2016-May-25 19:25N 46°03' W 073°07'0 0.0
2016-May-25 18:31N 46°03' W 073°07'0 0.0
2016-May-25 17:31N 46°03' W 073°07'0 0.0
2016-May-25 16:28N 46°03' W 073°07'0 0.0
2016-May-25 15:31N 46°03' W 073°07'0 0.0
2016-May-25 14:31N 46°03' W 073°07'0 0.0
2016-May-25 13:31N 46°03' W 073°07'0 0.0
2016-May-25 12:31N 46°03' W 073°07'0 0.0
2016-May-25 11:31N 46°03' W 073°07'0 0.0
2016-May-25 10:31N 46°03' W 073°07'0 0.0
2016-May-25 09:31N 46°03' W 073°07'0 0.0
2016-May-25 08:31N 46°03' W 073°07'0 0.0
2016-May-25 07:31N 46°03' W 073°07'0 0.0
2016-May-25 06:31N 46°03' W 073°07'0 0.0
2016-May-25 05:31N 46°03' W 073°07'0 0.0
2016-May-25 04:25N 46°03' W 073°07'0 0.0
2016-May-25 03:31N 46°03' W 073°07'0 0.0
2016-May-25 02:31N 46°03' W 073°07'0 0.0
2016-May-25 01:31N 46°03' W 073°07'0 0.0
2016-May-25 00:31N 46°03' W 073°07'0 0.0
2016-May-24 23:31N 46°03' W 073°07'0 0.0
2016-May-24 22:28N 46°03' W 073°07'0 0.0
2016-May-24 21:31N 46°03' W 073°07'0 0.0
2016-May-24 20:28N 46°03' W 073°07'0 0.0
2016-May-24 19:31N 46°03' W 073°07'0 0.0
2016-May-24 18:33N 46°03' W 073°07'2 1.8
2016-May-24 17:33N 46°03' W 073°09'1111.3
2016-May-24 16:34N 45°52' W 073°16'1313.0
2016-May-24 15:33N 45°42' W 073°27'1010.3
2016-May-24 14:33N 45°32' W 073°32'6 2.8
2016-May-24 12:22N 45°26' W 073°30'3 3.5
2016-May-24 11:30N 45°24' W 073°34'1 0.9
2016-May-24 10:33N 45°24' W 073°35'5 5.2
2016-May-24 09:33N 45°25' W 073°42'1010.2
2016-May-24 08:33N 45°20' W 073°55'1 1.2
2016-May-24 07:34N 45°18' W 073°56'1 0.9
2016-May-24 06:34N 45°18' W 073°56'6 6.3
2016-May-24 05:34N 45°13' W 074°03'1010.2
2016-May-24 04:33N 45°13' W 074°17'107 7.5
2016-May-23 14:26N 44°11' W 076°19'1110.8
2016-May-23 13:27N 44°02' W 076°27'12711.6
2016-May-23 02:33N 43°17' W 079°11'4 4.1
2016-May-23 01:33N 43°13' W 079°13'1 1.4
2016-May-23 00:31N 43°12' W 079°12'1 0.5
2016-May-22 23:32N 43°11' W 079°12'51 4.2
2016-May-22 11:21N 42°30' W 079°52'1011.9
2016-May-22 10:32N 42°25' W 080°04'332 7.2
2016-May-20 12:33N 46°45' W 084°53'  
Track history (hours):
 
Tides and Currents Weather Stations Pressure Air Temp Water Temp Dewpoint Dewpoint Depression Visibility Wind Speed Wind Dir Waves Ship Positions

Kaministiqua

Last reported at 2016-May-28 12:23 UTC. Time now 2016-May-28 20:42 UTC.
Position N 45°07' W 074°28'.

Length 223 m; draft 7 m.

Type: Cargo ship. MMSI: 316009457.

Date/timePositionNaut miles runAvg speedWind from/ knotsBaromVisibWave heightAir tempDewpointWater temp
2016-May-28 12:23N 45°07' W 074°28'1010.0
2016-May-28 11:25N 45°13' W 074°17'12 8.9
2016-May-28 10:05N 45°14' W 074°00'4 8.3
2016-May-28 09:33N 45°17' W 073°56'2 1.8
2016-May-28 08:33N 45°19' W 073°55'1 1.2
2016-May-28 07:34N 45°20' W 073°55'9 9.0
2016-May-28 06:33N 45°24' W 073°43'6 6.0
2016-May-28 05:34N 45°24' W 073°35'2 1.6
2016-May-28 04:33N 45°24' W 073°33'4 3.7
2016-May-28 03:33N 45°28' W 073°30'2 2.0
2016-May-28 02:24N 45°30' W 073°31'3 3.4
2016-May-28 01:33N 45°33' W 073°32'8 7.6
2016-May-28 00:33N 45°40' W 073°28'9 8.5
2016-May-27 23:33N 45°47' W 073°21'9 8.7
2016-May-27 22:33N 45°54' W 073°13'8 8.1
2016-May-27 21:34N 46°02' W 073°10'3 2.5
2016-May-27 20:33N 46°03' W 073°07'0 0.0
2016-May-27 19:31N 46°03' W 073°07'0 0.0
2016-May-27 18:31N 46°03' W 073°07'0 0.0
2016-May-27 17:31N 46°03' W 073°07'0 0.0
2016-May-27 16:31N 46°03' W 073°07'0 0.0
2016-May-27 15:31N 46°03' W 073°07'0 0.0
2016-May-27 14:31N 46°03' W 073°07'0 0.0
2016-May-27 13:31N 46°03' W 073°07'0 0.0
2016-May-27 12:31N 46°03' W 073°07'0 0.0
2016-May-27 11:31N 46°03' W 073°07'0 0.0
2016-May-27 10:31N 46°03' W 073°07'0 0.0
2016-May-27 09:31N 46°03' W 073°07'0 0.0
2016-May-27 08:31N 46°03' W 073°07'0 0.0
2016-May-27 07:31N 46°03' W 073°07'0 0.0
2016-May-27 06:25N 46°03' W 073°07'0 0.0
2016-May-27 05:31N 46°03' W 073°07'0 0.0
2016-May-27 04:31N 46°03' W 073°07'0 0.0
2016-May-27 03:31N 46°03' W 073°07'0 0.0
2016-May-27 02:31N 46°03' W 073°07'0 0.0
2016-May-27 01:31N 46°03' W 073°07'0 0.0
2016-May-27 00:31N 46°03' W 073°07'0 0.0
2016-May-26 23:31N 46°03' W 073°07'0 0.0
2016-May-26 22:31N 46°03' W 073°07'0 0.0
2016-May-26 21:31N 46°03' W 073°07'0 0.0
2016-May-26 20:31N 46°03' W 073°07'0 0.0
2016-May-26 19:31N 46°03' W 073°07'0 0.0
2016-May-26 18:31N 46°03' W 073°07'0 0.0
2016-May-26 17:31N 46°03' W 073°07'0 0.0
2016-May-26 16:31N 46°03' W 073°07'0 0.0
2016-May-26 15:31N 46°03' W 073°07'0 0.0
2016-May-26 14:31N 46°03' W 073°07'0 0.0
2016-May-26 13:31N 46°03' W 073°07'0 0.0
2016-May-26 12:31N 46°03' W 073°07'0 0.0
2016-May-26 11:31N 46°03' W 073°07'0 0.0
2016-May-26 10:31N 46°03' W 073°07'0 0.0
2016-May-26 09:31N 46°03' W 073°07'0 0.0
2016-May-26 08:31N 46°03' W 073°07'0 0.0
2016-May-26 07:31N 46°03' W 073°07'0 0.0
2016-May-26 06:31N 46°03' W 073°07'0 0.0
2016-May-26 05:31N 46°03' W 073°07'0 0.0
2016-May-26 04:31N 46°03' W 073°07'0 0.0
2016-May-26 03:31N 46°03' W 073°07'0 0.0
2016-May-26 02:31N 46°03' W 073°07'0 0.0
2016-May-26 01:31N 46°03' W 073°07'0 0.0
2016-May-26 00:31N 46°03' W 073°07'0 0.0
2016-May-25 23:31N 46°03' W 073°07'0 0.0
2016-May-25 22:31N 46°03' W 073°07'0 0.0
2016-May-25 21:31N 46°03' W 073°07'0 0.0
2016-May-25 20:31N 46°03' W 073°07'0 0.0
2016-May-25 19:25N 46°03' W 073°07'0 0.0
2016-May-25 18:31N 46°03' W 073°07'0 0.0
2016-May-25 17:31N 46°03' W 073°07'0 0.0
2016-May-25 16:28N 46°03' W 073°07'0 0.0
2016-May-25 15:31N 46°03' W 073°07'0 0.0
2016-May-25 14:31N 46°03' W 073°07'0 0.0
2016-May-25 13:31N 46°03' W 073°07'0 0.0
2016-May-25 12:31N 46°03' W 073°07'0 0.0
2016-May-25 11:31N 46°03' W 073°07'0 0.0
2016-May-25 10:31N 46°03' W 073°07'0 0.0
2016-May-25 09:31N 46°03' W 073°07'0 0.0
2016-May-25 08:31N 46°03' W 073°07'0 0.0
2016-May-25 07:31N 46°03' W 073°07'0 0.0
2016-May-25 06:31N 46°03' W 073°07'0 0.0
2016-May-25 05:31N 46°03' W 073°07'0 0.0
2016-May-25 04:25N 46°03' W 073°07'0 0.0
2016-May-25 03:31N 46°03' W 073°07'0 0.0
2016-May-25 02:31N 46°03' W 073°07'0 0.0
2016-May-25 01:31N 46°03' W 073°07'0 0.0
2016-May-25 00:31N 46°03' W 073°07'0 0.0
2016-May-24 23:31N 46°03' W 073°07'0 0.0
2016-May-24 22:28N 46°03' W 073°07'0 0.0
2016-May-24 21:31N 46°03' W 073°07'0 0.0
2016-May-24 20:28N 46°03' W 073°07'0 0.0
2016-May-24 19:31N 46°03' W 073°07'0 0.0
2016-May-24 18:33N 46°03' W 073°07'2 1.8
2016-May-24 17:33N 46°03' W 073°09'1111.3
2016-May-24 16:34N 45°52' W 073°16'1313.0
2016-May-24 15:33N 45°42' W 073°27'1010.3
2016-May-24 14:33N 45°32' W 073°32'6 2.8
2016-May-24 12:22N 45°26' W 073°30'3 3.5
2016-May-24 11:30N 45°24' W 073°34'1 0.9
2016-May-24 10:33N 45°24' W 073°35'5 5.2
2016-May-24 09:33N 45°25' W 073°42'1010.2
2016-May-24 08:33N 45°20' W 073°55'1 1.2
2016-May-24 07:34N 45°18' W 073°56'1 0.9
2016-May-24 06:34N 45°18' W 073°56'6 6.3
2016-May-24 05:34N 45°13' W 074°03'1010.2
2016-May-24 04:33N 45°13' W 074°17'107 7.5
2016-May-23 14:26N 44°11' W 076°19'1110.8
2016-May-23 13:27N 44°02' W 076°27'12711.6
2016-May-23 02:33N 43°17' W 079°11'4 4.1
2016-May-23 01:33N 43°13' W 079°13'1 1.4
2016-May-23 00:31N 43°12' W 079°12'1 0.5
2016-May-22 23:32N 43°11' W 079°12'51 4.2
2016-May-22 11:21N 42°30' W 079°52'1011.9
2016-May-22 10:32N 42°25' W 080°04'332 7.2
2016-May-20 12:33N 46°45' W 084°53'  

Dump ship's entire track history